createdAt,value
2018-06-09T00:01:18.655Z,19.60
2018-06-09T00:03:47.965Z,19.50
2018-06-09T00:06:17.281Z,19.60
2018-06-09T00:08:46.586Z,19.60
2018-06-09T00:11:15.924Z,19.50
2018-06-09T00:13:45.233Z,19.70
2018-06-09T00:16:14.620Z,19.50
2018-06-09T00:18:43.970Z,19.50
2018-06-09T00:21:13.271Z,19.40
2018-06-09T00:23:42.684Z,19.40
2018-06-09T00:26:11.989Z,19.30
2018-06-09T00:28:41.304Z,19.20
2018-06-09T00:33:39.588Z,19.30
2018-06-09T00:36:08.903Z,19.30
2018-06-09T00:38:38.237Z,19.30
2018-06-09T00:41:07.558Z,19.20
2018-06-09T00:43:36.893Z,19.30
2018-06-09T00:46:06.212Z,19.30
2018-06-09T00:48:35.544Z,19.30
2018-06-09T00:51:04.863Z,19.30
2018-06-09T00:53:34.232Z,19.10
2018-06-09T00:56:14.707Z,19.10
2018-06-09T00:58:44.057Z,19.20
2018-06-09T01:01:13.413Z,19.20
2018-06-09T01:03:42.719Z,19.20
2018-06-09T01:06:12.056Z,19.00
2018-06-09T01:08:41.406Z,19.00
2018-06-09T01:11:10.727Z,19.00
2018-06-09T01:13:40.060Z,18.90
2018-06-09T01:16:09.427Z,19.00
2018-06-09T01:18:38.765Z,18.80
2018-06-09T01:21:08.087Z,18.70
2018-06-09T01:23:37.396Z,18.80
2018-06-09T01:26:06.890Z,18.80
2018-06-09T01:28:36.186Z,18.90
2018-06-09T01:31:05.527Z,18.80
2018-06-09T01:33:34.879Z,18.80
2018-06-09T01:36:04.247Z,18.60
2018-06-09T01:38:33.573Z,18.60
2018-06-09T01:41:02.912Z,18.80
2018-06-09T01:43:32.395Z,18.80
2018-06-09T01:46:01.952Z,18.70
2018-06-09T01:48:31.510Z,18.60
2018-06-09T01:51:00.819Z,18.50
2018-06-09T01:53:30.129Z,18.50
2018-06-09T01:55:59.418Z,18.50
2018-06-09T01:58:28.710Z,18.40
2018-06-09T02:00:58.084Z,18.50
2018-06-09T02:03:27.560Z,18.40
2018-06-09T02:05:56.945Z,18.40
2018-06-09T02:08:26.284Z,18.40
2018-06-09T02:11:01.878Z,18.30
2018-06-09T02:13:31.205Z,18.20
2018-06-09T02:16:00.521Z,17.90
2018-06-09T02:18:29.828Z,18.00
2018-06-09T02:20:59.127Z,17.90
2018-06-09T02:23:28.579Z,17.90
2018-06-09T02:25:57.915Z,18.00
2018-06-09T02:28:27.285Z,18.00
2018-06-09T02:30:56.673Z,18.00
2018-06-09T02:33:26.043Z,17.90
2018-06-09T02:35:55.424Z,17.90
2018-06-09T02:38:24.770Z,17.90
2018-06-09T02:40:54.144Z,17.80
2018-06-09T02:43:23.557Z,17.80
2018-06-09T02:45:52.891Z,17.90
2018-06-09T02:48:22.333Z,17.90
2018-06-09T02:50:51.818Z,17.80
2018-06-09T02:53:21.202Z,17.80
2018-06-09T02:55:50.767Z,17.80
2018-06-09T02:58:20.122Z,17.70
2018-06-09T03:00:49.522Z,17.60
2018-06-09T03:03:18.854Z,17.60
2018-06-09T03:05:48.284Z,17.50
2018-06-09T03:08:17.621Z,17.40
2018-06-09T03:10:46.977Z,17.50
2018-06-09T03:13:16.539Z,17.50
2018-06-09T03:15:47.057Z,17.40
2018-06-09T03:18:16.562Z,17.40
2018-06-09T03:20:47.079Z,17.50
2018-06-09T03:23:16.544Z,17.50
2018-06-09T03:25:45.898Z,17.50
2018-06-09T03:28:15.534Z,17.30
2018-06-09T03:30:44.897Z,17.40
2018-06-09T03:33:14.317Z,17.40
2018-06-09T03:35:43.742Z,17.30
2018-06-09T03:38:13.073Z,17.40
2018-06-09T03:40:42.458Z,17.20
2018-06-09T03:43:11.916Z,17.30
2018-06-09T03:45:41.270Z,17.40
2018-06-09T03:48:10.764Z,17.40
2018-06-09T03:50:40.071Z,17.50
2018-06-09T03:53:09.446Z,17.50
2018-06-09T03:55:38.818Z,17.50
2018-06-09T03:58:08.178Z,17.50
2018-06-09T04:00:37.563Z,17.60
2018-06-09T04:03:06.943Z,17.60
2018-06-09T04:05:36.262Z,17.60
2018-06-09T04:08:05.815Z,17.70
2018-06-09T04:10:35.142Z,17.70
2018-06-09T04:13:04.605Z,17.80
2018-06-09T04:15:34.195Z,17.80
2018-06-09T04:18:03.675Z,17.80
2018-06-09T04:20:33.233Z,17.80
2018-06-09T04:23:02.843Z,17.80
2018-06-09T04:25:32.236Z,17.70
2018-06-09T04:28:01.629Z,17.50
2018-06-09T04:30:31.088Z,17.80
2018-06-09T04:33:01.571Z,17.80
2018-06-09T04:35:31.050Z,17.90
2018-06-09T04:38:00.436Z,17.70
2018-06-09T04:40:30.841Z,17.60
2018-06-09T04:43:00.247Z,17.60
2018-06-09T04:45:29.778Z,17.50
2018-06-09T04:47:59.135Z,17.60
2018-06-09T04:50:28.462Z,17.70
2018-06-09T04:52:57.790Z,17.90
2018-06-09T04:55:27.361Z,17.90
2018-06-09T04:57:56.780Z,18.00
2018-06-09T05:00:26.222Z,18.00
2018-06-09T05:02:55.610Z,18.20
2018-06-09T05:05:25.006Z,18.20
2018-06-09T05:07:54.354Z,18.30
2018-06-09T05:10:23.815Z,18.30
2018-06-09T05:12:53.221Z,18.50
2018-06-09T05:15:22.738Z,18.50
2018-06-09T05:17:52.139Z,18.60
2018-06-09T05:22:50.577Z,18.90
2018-06-09T05:25:19.970Z,19.10
2018-06-09T05:27:49.365Z,19.20
2018-06-09T05:30:18.815Z,19.40
2018-06-09T05:32:48.198Z,19.50
2018-06-09T05:35:18.409Z,19.70
2018-06-09T05:37:47.806Z,20.00
2018-06-09T05:40:18.376Z,20.20
2018-06-09T05:42:47.913Z,20.30
2018-06-09T05:45:17.431Z,20.30
2018-06-09T05:47:47.019Z,20.50
2018-06-09T05:50:16.588Z,20.80
2018-06-09T05:52:46.198Z,20.90
2018-06-09T05:55:15.558Z,21.10
2018-06-09T05:57:45.101Z,21.20
2018-06-09T06:00:14.537Z,21.40
2018-06-09T06:02:43.919Z,21.60
2018-06-09T06:05:13.363Z,21.70
2018-06-09T06:07:42.908Z,21.90
2018-06-09T06:10:12.319Z,22.10
2018-06-09T06:15:42.093Z,22.40
2018-06-09T06:18:12.542Z,22.60
2018-06-09T06:20:41.912Z,22.80
2018-06-09T06:23:11.317Z,22.90
2018-06-09T06:25:40.681Z,23.00
2018-06-09T06:28:10.050Z,23.30
2018-06-09T06:30:39.475Z,23.50
2018-06-09T06:33:08.889Z,23.60
2018-06-09T06:35:38.197Z,23.80
2018-06-09T06:41:08.165Z,24.10
2018-06-09T06:43:37.605Z,24.20
2018-06-09T06:46:06.953Z,24.30
2018-06-09T06:48:36.427Z,24.50
2018-06-09T06:51:05.826Z,24.60
2018-06-09T06:53:35.201Z,24.70
2018-06-09T06:56:04.627Z,25.00
2018-06-09T06:58:34.097Z,25.10
2018-06-09T07:01:03.535Z,25.20
2018-06-09T07:03:32.830Z,25.30
2018-06-09T07:06:02.122Z,25.50
2018-06-09T07:08:31.401Z,25.60
2018-06-09T07:11:00.715Z,25.90
2018-06-09T07:13:30.076Z,25.90
2018-06-09T07:15:59.435Z,26.00
2018-06-09T07:18:28.710Z,26.10
2018-06-09T07:20:58.005Z,26.40
2018-06-09T07:25:56.143Z,26.70
2018-06-09T07:28:25.417Z,26.70
2018-06-09T07:30:54.790Z,27.00
2018-06-09T07:33:24.225Z,27.00
2018-06-09T07:35:53.553Z,27.20
2018-06-09T07:38:22.818Z,27.20
2018-06-09T07:40:52.141Z,27.30
2018-06-09T07:43:21.394Z,27.30
2018-06-09T07:45:50.720Z,27.50
2018-06-09T07:48:20.029Z,27.50
2018-06-09T07:50:49.318Z,27.70
2018-06-09T07:53:18.654Z,27.70
2018-06-09T07:55:47.991Z,27.50
2018-06-09T07:58:17.264Z,27.90
2018-06-09T08:00:46.598Z,27.90
2018-06-09T08:03:15.895Z,28.20
2018-06-09T08:05:45.194Z,28.20
2018-06-09T08:08:14.481Z,28.60
2018-06-09T08:10:43.777Z,28.30
2018-06-09T08:13:13.090Z,28.50
2018-06-09T08:15:42.373Z,28.70
2018-06-09T08:18:11.660Z,28.70
2018-06-09T08:20:42.094Z,28.20
2018-06-09T08:23:11.379Z,28.40
2018-06-09T08:25:40.678Z,28.20
2018-06-09T08:28:09.979Z,28.30
2018-06-09T08:30:39.288Z,27.80
2018-06-09T08:33:08.574Z,27.00
2018-06-09T08:35:37.877Z,26.80
2018-06-09T08:43:54.476Z,28.30
2018-06-09T08:46:23.808Z,28.90
2018-06-09T08:48:53.097Z,29.50
2018-06-09T08:51:22.365Z,29.70
2018-06-09T08:53:51.644Z,30.00
2018-06-09T08:56:20.987Z,30.00
2018-06-09T08:58:50.262Z,30.20
2018-06-09T09:01:19.548Z,30.20
2018-06-09T09:03:48.829Z,30.40
2018-06-09T09:06:18.178Z,30.60
2018-06-09T09:08:47.474Z,30.50
2018-06-09T09:11:16.748Z,30.70
2018-06-09T09:13:46.038Z,30.80
2018-06-09T09:16:15.429Z,30.90
2018-06-09T09:18:44.829Z,31.00
2018-06-09T09:21:14.127Z,31.10
2018-06-09T09:23:43.423Z,31.10
2018-06-09T09:26:12.768Z,31.20
2018-06-09T09:28:42.023Z,31.50
2018-06-09T09:31:11.317Z,31.40
2018-06-09T09:33:40.583Z,31.30
2018-06-09T09:36:09.866Z,31.40
2018-06-09T09:38:39.147Z,31.50
2018-06-09T09:41:08.530Z,31.70
2018-06-09T09:43:37.904Z,31.70
2018-06-09T09:48:36.101Z,31.80
2018-06-09T09:51:05.502Z,31.80
2018-06-09T09:53:34.971Z,32.00
2018-06-09T09:56:04.363Z,32.00
2018-06-09T09:58:33.714Z,32.00
2018-06-09T10:06:03.182Z,31.80
2018-06-09T10:08:32.509Z,32.20
2018-06-09T10:11:01.985Z,32.40
2018-06-09T10:13:31.273Z,31.70
2018-06-09T10:16:00.600Z,32.20
2018-06-09T10:18:29.998Z,32.10
2018-06-09T10:20:59.471Z,32.40
2018-06-09T10:23:28.782Z,32.70
2018-06-09T10:25:58.103Z,32.80
2018-06-09T10:28:27.514Z,32.70
2018-06-09T10:30:56.900Z,32.10
2018-06-09T10:33:26.260Z,32.00
2018-06-09T10:35:55.583Z,32.40
2018-06-09T10:38:24.922Z,32.40
2018-06-09T10:40:54.217Z,32.70
2018-06-09T10:43:23.835Z,32.80
2018-06-09T10:45:53.248Z,32.90
2018-06-09T10:48:22.685Z,33.30
2018-06-09T10:50:52.045Z,33.10
2018-06-09T10:53:21.403Z,33.10
2018-06-09T10:58:19.570Z,33.10
2018-06-09T11:00:48.913Z,33.20
2018-06-09T11:03:18.329Z,33.10
2018-06-09T11:05:47.626Z,33.50
2018-06-09T11:08:16.962Z,33.80
2018-06-09T11:10:46.332Z,33.90
2018-06-09T11:13:15.646Z,33.70
2018-06-09T11:15:44.967Z,33.80
2018-06-09T11:18:14.325Z,33.70
2018-06-09T11:20:43.751Z,33.80
2018-06-09T11:23:14.162Z,33.70
2018-06-09T11:25:43.482Z,34.00
2018-06-09T11:28:12.782Z,33.80
2018-06-09T11:30:43.117Z,33.60
2018-06-09T11:33:12.492Z,33.10
2018-06-09T11:35:41.847Z,33.30
2018-06-09T11:38:11.178Z,33.10
2018-06-09T11:40:40.522Z,33.70
2018-06-09T11:43:09.834Z,34.10
2018-06-09T11:45:39.190Z,34.00
2018-06-09T11:48:08.485Z,34.20
2018-06-09T11:50:37.950Z,33.60
2018-06-09T11:53:07.254Z,33.10
2018-06-09T11:55:36.583Z,33.30
2018-06-09T11:58:06.010Z,33.10
2018-06-09T12:00:35.366Z,33.40
2018-06-09T12:03:04.705Z,33.60
2018-06-09T12:05:34.067Z,33.80
2018-06-09T12:08:03.352Z,33.80
2018-06-09T12:10:32.666Z,34.10
2018-06-09T12:13:01.989Z,34.00
2018-06-09T12:15:31.356Z,33.90
2018-06-09T12:18:00.674Z,34.40
2018-06-09T12:20:30.008Z,34.50
2018-06-09T12:22:59.414Z,34.80
2018-06-09T12:25:28.711Z,34.80
2018-06-09T12:27:58.067Z,34.90
2018-06-09T12:30:27.381Z,34.40
2018-06-09T12:32:56.697Z,34.30
2018-06-09T12:35:26.174Z,33.00
2018-06-09T12:37:55.508Z,33.30
2018-06-09T12:42:53.761Z,33.60
2018-06-09T12:45:23.098Z,33.60
2018-06-09T12:47:52.409Z,33.20
2018-06-09T12:50:21.789Z,33.20
2018-06-09T12:52:51.102Z,33.60
2018-06-09T12:57:49.322Z,34.00
2018-06-09T13:00:18.649Z,34.20
2018-06-09T13:02:47.985Z,34.70
2018-06-09T13:05:17.311Z,34.50
2018-06-09T13:07:46.700Z,34.40
2018-06-09T13:10:16.002Z,34.70
2018-06-09T13:15:14.312Z,34.10
2018-06-09T13:17:43.660Z,34.30
2018-06-09T13:20:13.007Z,34.00
2018-06-09T13:22:42.344Z,33.70
2018-06-09T13:25:11.699Z,32.90
2018-06-09T13:27:41.043Z,33.00
2018-06-09T13:30:10.421Z,33.00
2018-06-09T13:32:39.731Z,32.70
2018-06-09T13:35:09.205Z,32.30
2018-06-09T13:37:38.522Z,32.00
2018-06-09T13:40:07.851Z,32.00
2018-06-09T13:42:37.290Z,32.00
2018-06-09T13:45:06.658Z,32.20
2018-06-09T13:47:35.979Z,31.90
2018-06-09T13:50:05.390Z,31.90
2018-06-09T13:52:34.762Z,31.80
2018-06-09T13:55:04.289Z,31.70
2018-06-09T13:57:33.633Z,31.80
2018-06-09T14:00:03.025Z,31.60
2018-06-09T14:02:32.452Z,31.60
2018-06-09T14:07:30.604Z,31.30
2018-06-09T14:09:59.901Z,31.20
2018-06-09T14:12:29.238Z,31.10
2018-06-09T14:14:58.538Z,31.00
2018-06-09T14:17:27.820Z,30.80
2018-06-09T14:19:57.183Z,30.80
2018-06-09T14:22:26.472Z,30.70
2018-06-09T14:24:55.778Z,30.50
2018-06-09T14:27:25.078Z,30.60
2018-06-09T14:29:54.380Z,30.50
2018-06-09T14:32:23.670Z,30.50
2018-06-09T14:34:53.057Z,30.40
2018-06-09T14:37:22.362Z,30.30
2018-06-09T14:39:51.658Z,30.30
2018-06-09T14:42:21.075Z,30.10
2018-06-09T14:44:50.361Z,29.80
2018-06-09T14:47:19.682Z,29.80
2018-06-09T14:49:48.961Z,29.80
2018-06-09T14:52:18.286Z,29.60
2018-06-09T14:54:47.584Z,29.60
2018-06-09T14:57:17.002Z,29.80
2018-06-09T14:59:46.342Z,29.80
2018-06-09T15:02:15.665Z,29.70
2018-06-09T15:04:44.977Z,29.60
2018-06-09T15:07:14.290Z,29.50
2018-06-09T15:09:43.618Z,29.40
2018-06-09T15:12:12.977Z,29.20
2018-06-09T15:14:42.302Z,29.10
2018-06-09T15:17:11.763Z,29.20
2018-06-09T15:22:09.938Z,29.10
2018-06-09T15:24:39.253Z,29.00
2018-06-09T15:27:08.621Z,29.00
2018-06-09T15:29:37.970Z,28.90
2018-06-09T15:32:07.301Z,29.00
2018-06-09T15:34:36.611Z,29.00
2018-06-09T15:37:06.039Z,29.00
2018-06-09T15:39:35.394Z,28.90
2018-06-09T15:42:04.831Z,28.70
2018-06-09T15:44:34.221Z,28.80
2018-06-09T15:47:03.640Z,28.80
2018-06-09T15:49:33.065Z,28.70
2018-06-09T15:52:02.408Z,28.80
2018-06-09T15:54:31.847Z,28.80
2018-06-09T15:57:01.171Z,28.90
2018-06-09T15:59:30.515Z,28.90
2018-06-09T16:01:59.941Z,28.80
2018-06-09T16:04:29.280Z,28.10
2018-06-09T16:06:58.585Z,26.30
2018-06-09T16:09:27.906Z,25.20
2018-06-09T16:14:26.071Z,25.30
2018-06-09T16:16:55.386Z,25.40
2018-06-09T16:19:24.741Z,25.30
2018-06-09T16:21:54.067Z,24.50
2018-06-09T16:24:23.385Z,24.50
2018-06-09T16:29:21.676Z,24.90
2018-06-09T16:31:50.980Z,24.60
2018-06-09T16:34:20.272Z,24.30
2018-06-09T16:36:49.631Z,24.50
2018-06-09T16:39:18.951Z,24.00
2018-06-09T16:41:48.334Z,24.10
2018-06-09T16:44:17.689Z,24.10
2018-06-09T16:49:16.039Z,24.30
2018-06-09T16:51:45.404Z,24.20
2018-06-09T16:54:14.773Z,24.10
2018-06-09T16:56:44.102Z,24.40
2018-06-09T16:59:13.388Z,23.90
2018-06-09T17:01:43.759Z,23.90
2018-06-09T17:04:13.049Z,23.80
2018-06-09T17:06:42.334Z,23.80
2018-06-09T17:09:11.698Z,23.70
2018-06-09T17:11:41.218Z,23.80
2018-06-09T17:14:10.510Z,23.70
2018-06-09T17:16:39.869Z,23.90
2018-06-09T17:19:09.146Z,23.70
2018-06-09T17:21:38.576Z,23.80
2018-06-09T17:24:07.885Z,23.80
2018-06-09T17:26:37.175Z,23.60
2018-06-09T17:29:06.544Z,23.60
2018-06-09T17:31:35.793Z,23.60
2018-06-09T17:34:05.235Z,23.50
2018-06-09T17:36:34.558Z,23.30
2018-06-09T17:39:06.238Z,23.30
2018-06-09T17:41:35.613Z,23.30
2018-06-09T17:46:33.812Z,23.40
2018-06-09T17:49:03.129Z,23.60
2018-06-09T17:51:32.463Z,23.70
2018-06-09T17:54:01.876Z,23.30
2018-06-09T17:56:31.150Z,23.00
2018-06-09T17:59:00.482Z,23.40
2018-06-09T18:01:29.886Z,23.40
2018-06-09T18:03:59.305Z,22.80
2018-06-09T18:06:28.644Z,23.00
2018-06-09T18:08:58.014Z,23.20
2018-06-09T18:11:27.334Z,23.50
2018-06-09T18:13:56.754Z,23.70
2018-06-09T18:16:26.218Z,23.80
2018-06-09T18:21:24.465Z,23.90
2018-06-09T18:23:53.876Z,23.90
2018-06-09T18:26:23.234Z,24.00
2018-06-09T18:28:52.555Z,24.10
2018-06-09T18:31:22.046Z,24.10
2018-06-09T18:33:51.569Z,24.10
2018-06-09T18:36:20.956Z,24.10
2018-06-09T18:38:50.362Z,24.00
2018-06-09T18:41:19.781Z,24.00
2018-06-09T18:43:49.255Z,24.10
2018-06-09T18:46:18.799Z,24.00
2018-06-09T18:48:48.162Z,23.90
2018-06-09T18:51:17.515Z,23.80
2018-06-09T18:53:46.921Z,23.80
2018-06-09T18:56:16.313Z,23.80
2018-06-09T18:58:45.649Z,23.90
2018-06-09T19:01:15.203Z,23.70
2018-06-09T19:03:44.590Z,23.70
2018-06-09T19:06:14.114Z,23.60
2018-06-09T19:08:43.659Z,23.50
2018-06-09T19:11:13.082Z,23.30
2018-06-09T19:13:42.467Z,23.30
2018-06-09T19:16:11.810Z,23.50
2018-06-09T19:18:41.151Z,23.60
2018-06-09T19:21:10.582Z,23.70
2018-06-09T19:23:39.961Z,23.50
2018-06-09T19:26:09.294Z,23.40
2018-06-09T19:28:38.635Z,23.50
2018-06-09T19:31:08.029Z,23.40
2018-06-09T19:33:37.491Z,23.10
2018-06-09T19:36:06.825Z,23.10
2018-06-09T19:38:36.160Z,23.20
2018-06-09T19:41:05.661Z,23.10
2018-06-09T19:43:35.122Z,22.80
2018-06-09T19:46:04.530Z,22.90
2018-06-09T19:48:34.945Z,23.10
2018-06-09T19:51:04.539Z,23.10
2018-06-09T19:53:33.840Z,23.20
2018-06-09T19:56:03.250Z,22.90
2018-06-09T19:58:32.598Z,23.00
2018-06-09T20:01:01.989Z,23.00
2018-06-09T20:03:31.362Z,23.00
2018-06-09T20:06:00.671Z,22.90
2018-06-09T20:10:58.861Z,23.00
2018-06-09T20:13:28.201Z,23.10
2018-06-09T20:15:57.871Z,22.90
2018-06-09T20:20:56.245Z,22.90
2018-06-09T20:23:25.919Z,22.90
2018-06-09T20:25:55.358Z,22.80
2018-06-09T20:28:24.706Z,22.80
2018-06-09T20:30:54.120Z,22.70
2018-06-09T20:33:23.448Z,22.70
2018-06-09T20:35:52.738Z,22.60
2018-06-09T20:38:22.139Z,22.60
2018-06-09T20:40:51.542Z,22.50
2018-06-09T20:43:20.874Z,22.50
2018-06-09T20:45:50.172Z,22.30
2018-06-09T20:48:19.482Z,22.10
2018-06-09T20:50:48.812Z,22.30
2018-06-09T20:53:18.226Z,22.30
2018-06-09T20:55:47.489Z,22.30
2018-06-09T20:58:16.778Z,22.40
2018-06-09T21:00:46.065Z,22.50
2018-06-09T21:03:15.451Z,22.40
2018-06-09T21:05:45.609Z,22.40
2018-06-09T21:08:14.939Z,22.10
2018-06-09T21:10:44.228Z,22.30
2018-06-09T21:13:13.563Z,22.30
2018-06-09T21:15:42.854Z,22.10
2018-06-09T21:18:12.133Z,21.90
2018-06-09T21:20:41.476Z,21.80
2018-06-09T21:23:10.705Z,21.70
2018-06-09T21:25:40.019Z,21.80
2018-06-09T21:28:13.091Z,21.60
2018-06-09T21:30:42.830Z,21.10
2018-06-09T21:33:27.520Z,20.80
2018-06-09T21:36:03.189Z,20.80
2018-06-09T21:38:38.585Z,20.50
2018-06-09T21:41:13.166Z,20.80
2018-06-09T21:43:47.915Z,20.50
2018-06-09T21:46:48.720Z,20.00
2018-06-09T21:49:18.257Z,20.00
2018-06-09T21:51:47.533Z,19.80
2018-06-09T21:54:16.955Z,20.10
2018-06-09T21:56:46.251Z,20.30
2018-06-09T21:59:15.532Z,20.30
2018-06-09T22:01:44.933Z,20.10
2018-06-09T22:04:14.210Z,20.20
2018-06-09T22:06:43.502Z,20.20
2018-06-09T22:09:12.753Z,20.40
2018-06-09T22:11:42.169Z,20.10
2018-06-09T22:14:11.565Z,20.20
2018-06-09T22:16:40.849Z,20.50
2018-06-09T22:19:10.106Z,20.70
2018-06-09T22:24:08.289Z,20.60
2018-06-09T22:26:37.577Z,20.60
2018-06-09T22:29:06.850Z,20.70
2018-06-09T22:31:36.174Z,20.70
2018-06-09T22:34:05.477Z,20.50
2018-06-09T22:36:34.777Z,20.50
2018-06-09T22:39:06.002Z,20.30
2018-06-09T22:41:35.318Z,20.40
2018-06-09T22:44:04.623Z,20.60
2018-06-09T22:46:33.902Z,20.70
2018-06-09T22:49:03.182Z,20.70
2018-06-09T22:51:32.478Z,20.70
2018-06-09T22:54:01.837Z,20.70
2018-06-09T22:56:31.123Z,20.80
2018-06-09T22:59:00.413Z,20.90
2018-06-09T23:01:29.698Z,20.90
2018-06-09T23:03:58.992Z,20.80
2018-06-09T23:06:28.257Z,20.80
2018-06-09T23:08:57.525Z,20.70
2018-06-09T23:11:26.800Z,20.70
2018-06-09T23:13:56.146Z,20.70
2018-06-09T23:16:25.434Z,20.70
2018-06-09T23:18:54.715Z,20.80
2018-06-09T23:21:23.970Z,20.80
2018-06-09T23:23:53.361Z,20.70
2018-06-09T23:26:22.620Z,20.50
2018-06-09T23:28:51.912Z,20.40
2018-06-09T23:31:21.266Z,20.30
2018-06-09T23:33:50.550Z,20.30
2018-06-09T23:36:19.809Z,20.30
2018-06-09T23:38:49.161Z,20.30
2018-06-09T23:41:18.463Z,20.20
2018-06-09T23:43:47.834Z,20.20
2018-06-09T23:46:17.111Z,20.30
2018-06-09T23:48:46.493Z,20.30
2018-06-09T23:51:15.774Z,20.30
2018-06-09T23:53:45.033Z,20.20
2018-06-09T23:56:14.370Z,20.20
2018-06-09T23:58:43.603Z,20.30
